Time;durP1;ratioP1;P1;durP2;ratioP2;P2;SDS_P1;SDS_P2;PMS_P1;PMS_P2;Temp;Humidity;BMP_temperature;BMP_pressure;BME280_temperature;BME280_humidity;BME280_pressure;Samples;Min_cycle;Max_cycle;Signal;HPM_P1;HPM_P2
2022/09/30 00:01:26;;;;;;;7.47;5.75;;;;;;;;;;5304524;28;20012;-66
2022/09/30 00:03:58;;;;;;;7.45;5.50;;;;;;;;;;5305164;28;20028;-66
2022/09/30 00:06:30;;;;;;;8.45;6.07;;;;;;;;;;5303962;28;20050;-66
2022/09/30 00:09:02;;;;;;;6.13;5.07;;;;;;;;;;5305201;28;20016;-66
2022/09/30 00:11:37;;;;;;;6.07;5.00;;;;;;;;;;5304377;28;20042;-66
2022/09/30 00:14:13;;;;;;;7.03;5.55;;;;;;;;;;5304256;28;20100;-66
2022/09/30 00:16:45;;;;;;;8.15;5.93;;;;;;;;;;5304197;28;21037;-66
2022/09/30 00:19:16;;;;;;;7.05;5.20;;;;;;;;;;5304987;28;20016;-66
2022/09/30 00:21:47;;;;;;;6.07;5.57;;;;;;;;;;5303495;28;20021;-66
2022/09/30 00:24:18;;;;;;;6.40;5.50;;;;;;;;;;5305303;28;20031;-66
2022/09/30 00:26:50;;;;;;;6.10;5.43;;;;;;;;;;5304196;28;20020;-66
2022/09/30 00:29:21;;;;;;;6.82;6.15;;;;;;;;;;5304123;28;20028;-66
2022/09/30 00:31:52;;;;;;;10.52;6.32;;;;;;;;;;5304271;28;20030;-66
2022/09/30 00:34:23;;;;;;;8.50;7.70;;;;;;;;;;5304116;28;20024;-66
2022/09/30 00:36:54;;;;;;;8.13;7.15;;;;;;;;;;5303938;28;20016;-66
2022/09/30 00:39:26;;;;;;;7.65;6.95;;;;;;;;;;5303989;28;20081;-66
2022/09/30 00:41:59;;;;;;;9.02;7.40;;;;;;;;;;5303847;28;20035;-66
2022/09/30 00:45:06;;;;;;;10.02;7.55;;;;;;;;;;5304032;28;20494;-66
2022/09/30 00:47:45;;;;;;;8.23;6.20;;;;;;;;;;5259494;28;20037;-66
2022/09/30 00:50:16;;;;;;;;;;;;;;;;;;5298976;28;20048;-66
2022/09/30 00:52:54;;;;;;;8.75;6.30;;;;;;;;;;5304008;28;20056;-66
2022/09/30 00:55:28;;;;;;;7.07;5.65;;;;;;;;;;5303621;28;20776;-66
2022/09/30 00:58:00;;;;;;;8.25;7.43;;;;;;;;;;5303577;28;20027;-66
2022/09/30 01:00:31;;;;;;;8.38;7.00;;;;;;;;;;5303923;28;20400;-66
2022/09/30 01:03:03;;;;;;;8.55;7.15;;;;;;;;;;5303316;28;20070;-66
2022/09/30 01:05:34;;;;;;;9.10;6.93;;;;;;;;;;5303518;28;20020;-66
2022/09/30 01:08:07;;;;;;;7.25;6.55;;;;;;;;;;5303954;28;20035;-66
2022/09/30 01:10:38;;;;;;;7.40;6.72;;;;;;;;;;5302446;28;20016;-66
2022/09/30 01:13:09;;;;;;;9.80;7.93;;;;;;;;;;5304200;28;20020;-65
2022/09/30 01:16:05;;;;;;;9.23;7.82;;;;;;;;;;5303499;28;20077;-66
2022/09/30 01:18:43;;;;;;;10.07;7.30;;;;;;;;;;5297372;28;20491;-66
2022/09/30 01:21:32;;;;;;;8.10;6.72;;;;;;;;;;5303833;28;20051;-66
2022/09/30 01:24:06;;;;;;;8.85;7.70;;;;;;;;;;5303078;28;20028;-65
2022/09/30 01:26:45;;;;;;;9.93;8.32;;;;;;;;;;5303028;28;20476;-65
2022/09/30 01:29:22;;;;;;;11.40;9.65;;;;;;;;;;5302939;28;20043;-66
2022/09/30 01:32:11;;;;;;;11.70;9.90;;;;;;;;;;5302517;28;20090;-66
2022/09/30 01:34:42;;;;;;;;;;;;;;;;;;5303162;28;20405;-66
2022/09/30 01:37:22;;;;;;;9.35;8.45;;;;;;;;;;5303503;28;19908;-66
2022/09/30 01:39:53;;;;;;;10.13;8.85;;;;;;;;;;5301487;28;20022;-65
2022/09/30 01:42:27;;;;;;;8.82;7.10;;;;;;;;;;5302480;28;20023;-64
2022/09/30 01:45:05;;;;;;;10.35;7.43;;;;;;;;;;5301727;28;20028;-66
2022/09/30 01:48:02;;;;;;;10.35;8.50;;;;;;;;;;5302177;28;20394;-64
2022/09/30 01:50:54;;;;;;;10.52;9.02;;;;;;;;;;5285199;28;20048;-65
2022/09/30 01:53:44;;;;;;;9.93;8.88;;;;;;;;;;5301027;28;20067;-66
2022/09/30 01:56:15;;;;;;;;;;;;;;;;;;5302506;28;20020;-66
2022/09/30 01:58:51;;;;;;;10.23;9.02;;;;;;;;;;5301556;28;20269;-65
2022/09/30 02:01:27;;;;;;;10.70;9.30;;;;;;;;;;5302463;28;20061;-66
2022/09/30 02:04:02;;;;;;;11.05;8.95;;;;;;;;;;5302312;28;20404;-66
2022/09/30 02:06:36;;;;;;;10.52;9.55;;;;;;;;;;5300686;28;20047;-65
2022/09/30 02:09:13;;;;;;;10.57;9.45;;;;;;;;;;5301813;28;20131;-66
2022/09/30 02:11:44;;;;;;;14.02;10.02;;;;;;;;;;5301634;28;20058;-66
2022/09/30 02:14:19;;;;;;;11.13;9.98;;;;;;;;;;5301011;28;20060;-65
2022/09/30 02:17:13;;;;;;;11.25;9.07;;;;;;;;;;5301435;28;20421;-65
2022/09/30 02:19:46;;;;;;;11.32;10.13;;;;;;;;;;5301436;28;20388;-66
2022/09/30 02:22:19;;;;;;;11.18;10.07;;;;;;;;;;5301337;28;20016;-66
2022/09/30 02:24:54;;;;;;;14.05;11.30;;;;;;;;;;5301300;28;20055;-66
2022/09/30 02:27:28;;;;;;;11.20;10.05;;;;;;;;;;5300561;28;20038;-65
2022/09/30 02:30:02;;;;;;;11.13;10.10;;;;;;;;;;5302020;28;20421;-64
2022/09/30 02:32:36;;;;;;;12.80;11.50;;;;;;;;;;5301730;28;20346;-65
2022/09/30 02:35:10;;;;;;;13.70;11.65;;;;;;;;;;5301289;28;20024;-65
2022/09/30 02:37:44;;;;;;;11.93;10.82;;;;;;;;;;5301461;28;20020;-65
2022/09/30 02:40:20;;;;;;;14.30;12.43;;;;;;;;;;5301321;28;20087;-66
2022/09/30 02:42:52;;;;;;;15.02;12.82;;;;;;;;;;5300303;28;20041;-66
2022/09/30 02:45:24;;;;;;;14.57;13.02;;;;;;;;;;5301154;28;20089;-66
2022/09/30 02:48:02;;;;;;;14.65;13.15;;;;;;;;;;5300991;28;20043;-66
2022/09/30 02:50:42;;;;;;;13.43;12.02;;;;;;;;;;5300373;28;20044;-66
2022/09/30 02:53:20;;;;;;;13.80;11.80;;;;;;;;;;5301520;28;20024;-65
2022/09/30 02:56:10;;;;;;;16.40;12.97;;;;;;;;;;5300158;28;20069;-66
2022/09/30 02:58:42;;;;;;;13.73;12.10;;;;;;;;;;5300456;28;20035;-65
2022/09/30 03:01:14;;;;;;;13.85;12.55;;;;;;;;;;5301501;28;20442;-66
2022/09/30 03:03:54;;;;;;;14.63;13.10;;;;;;;;;;5300127;28;20096;-66
2022/09/30 03:06:25;;;;;;;18.05;14.55;;;;;;;;;;5301067;28;20016;-66
2022/09/30 03:08:57;;;;;;;14.75;13.35;;;;;;;;;;5301178;28;20031;-66
2022/09/30 03:11:28;;;;;;;15.52;14.00;;;;;;;;;;5299849;28;20024;-66
2022/09/30 03:14:26;;;;;;;15.43;13.88;;;;;;;;;;5301629;28;20146;-66
2022/09/30 03:17:16;;;;;;;14.33;12.87;;;;;;;;;;5291835;28;20055;-66
2022/09/30 03:19:59;;;;;;;13.50;12.20;;;;;;;;;;5300578;28;20717;-66
2022/09/30 03:22:30;;;;;;;12.90;11.63;;;;;;;;;;5300815;28;20478;-67
2022/09/30 03:25:19;;;;;;;13.68;12.30;;;;;;;;;;5300432;28;20055;-65
2022/09/30 03:27:59;;;;;;;14.07;12.68;;;;;;;;;;5300339;28;20566;-66
2022/09/30 03:30:31;;;;;;;15.52;13.52;;;;;;;;;;5299603;28;20016;-66
2022/09/30 03:33:06;;;;;;;14.32;13.02;;;;;;;;;;5301334;28;20031;-67
2022/09/30 03:35:56;;;;;;;16.42;14.57;;;;;;;;;;5300511;28;20109;-65
2022/09/30 03:38:36;;;;;;;16.52;14.25;;;;;;;;;;5299718;28;20473;-65
2022/09/30 03:41:13;;;;;;;16.73;14.90;;;;;;;;;;5301202;28;20016;-66
2022/09/30 03:43:50;;;;;;;17.73;14.20;;;;;;;;;;5300556;28;20020;-66
2022/09/30 03:46:33;;;;;;;15.38;13.95;;;;;;;;;;5300137;28;20013;-66
2022/09/30 03:49:07;;;;;;;15.75;13.93;;;;;;;;;;5300739;28;20085;-66
2022/09/30 03:51:39;;;;;;;16.30;13.85;;;;;;;;;;5301300;28;20036;-66
2022/09/30 03:54:11;;;;;;;16.02;14.23;;;;;;;;;;5304396;28;20050;-65
2022/09/30 03:56:42;;;;;;;17.70;14.35;;;;;;;;;;5303907;28;20344;-66
2022/09/30 03:59:24;;;;;;;15.50;13.98;;;;;;;;;;5303684;28;20365;-66
2022/09/30 04:01:58;;;;;;;15.18;13.77;;;;;;;;;;5304430;28;20382;-66
2022/09/30 04:04:29;;;;;;;15.52;14.02;;;;;;;;;;5303858;28;20032;-66
2022/09/30 04:07:00;;;;;;;16.28;14.54;;;;;;;;;;5303696;28;20396;-66
2022/09/30 04:09:31;;;;;;;17.63;15.32;;;;;;;;;;5303627;28;20484;-66
2022/09/30 04:12:03;;;;;;;16.58;14.94;;;;;;;;;;5304220;28;20073;-66
2022/09/30 04:14:35;;;;;;;16.30;14.63;;;;;;;;;;5303052;28;20046;-66
2022/09/30 04:17:06;;;;;;;18.30;14.32;;;;;;;;;;5304260;28;20098;-66
2022/09/30 04:19:39;;;;;;;17.10;14.70;;;;;;;;;;5302735;28;20035;-66
2022/09/30 04:22:10;;;;;;;15.63;13.75;;;;;;;;;;5303999;28;20489;-66
2022/09/30 04:24:42;;;;;;;15.18;13.65;;;;;;;;;;5303245;28;20125;-66
2022/09/30 04:27:13;;;;;;;15.82;14.23;;;;;;;;;;5303071;28;20065;-66
2022/09/30 04:29:44;;;;;;;17.48;14.34;;;;;;;;;;5303108;28;20039;-66
2022/09/30 04:32:16;;;;;;;15.44;13.90;;;;;;;;;;5303956;28;20013;-67
2022/09/30 04:34:47;;;;;;;17.52;15.73;;;;;;;;;;5302301;28;20020;-65
2022/09/30 04:37:18;;;;;;;18.48;16.50;;;;;;;;;;5303942;28;20016;-65
2022/09/30 04:39:49;;;;;;;17.58;15.70;;;;;;;;;;5303285;28;20024;-67
2022/09/30 04:42:20;;;;;;;16.60;14.90;;;;;;;;;;5303026;28;20024;-67
2022/09/30 04:44:52;;;;;;;18.90;16.90;;;;;;;;;;5302913;28;20016;-66
2022/09/30 04:47:24;;;;;;;17.68;15.80;;;;;;;;;;5303216;28;20023;-66
2022/09/30 04:49:56;;;;;;;17.27;15.57;;;;;;;;;;5302375;28;20153;-66
2022/09/30 04:52:27;;;;;;;17.48;14.85;;;;;;;;;;5302845;28;20019;-66
2022/09/30 04:54:58;;;;;;;19.38;15.42;;;;;;;;;;5302565;28;20028;-66
2022/09/30 04:57:29;;;;;;;19.68;15.88;;;;;;;;;;5302472;28;20047;-66
2022/09/30 05:00:01;;;;;;;17.13;14.70;;;;;;;;;;5303179;28;20020;-65
2022/09/30 05:02:32;;;;;;;16.40;14.75;;;;;;;;;;5300688;28;20099;-66
2022/09/30 05:05:03;;;;;;;16.52;14.77;;;;;;;;;;5303153;28;20023;-66
2022/09/30 05:07:34;;;;;;;17.05;15.40;;;;;;;;;;5302439;28;20016;-66
2022/09/30 05:10:07;;;;;;;19.08;16.30;;;;;;;;;;5302120;28;20062;-66
2022/09/30 05:12:39;;;;;;;17.98;16.08;;;;;;;;;;5302566;28;20466;-67
2022/09/30 05:15:11;;;;;;;18.30;16.23;;;;;;;;;;5302618;28;20046;-66
2022/09/30 05:17:42;;;;;;;17.40;14.98;;;;;;;;;;5301203;28;20799;-65
2022/09/30 05:20:13;;;;;;;16.63;14.93;;;;;;;;;;5303000;28;20058;-66
2022/09/30 05:22:44;;;;;;;16.92;15.23;;;;;;;;;;5301998;28;20049;-66
2022/09/30 05:25:15;;;;;;;16.00;14.15;;;;;;;;;;5302213;28;20031;-65
2022/09/30 05:27:50;;;;;;;17.40;15.70;;;;;;;;;;5302083;28;20493;-65
2022/09/30 05:30:21;;;;;;;21.27;16.02;;;;;;;;;;5301970;28;20051;-66
2022/09/30 05:32:52;;;;;;;18.40;16.20;;;;;;;;;;5301911;28;20128;-66
2022/09/30 05:35:24;;;;;;;18.75;16.40;;;;;;;;;;5302111;28;20015;-66
2022/09/30 05:37:55;;;;;;;21.30;17.42;;;;;;;;;;5301660;28;20027;-66
2022/09/30 05:40:26;;;;;;;18.83;16.92;;;;;;;;;;5302240;28;20401;-66
2022/09/30 05:42:58;;;;;;;17.23;15.52;;;;;;;;;;5302615;28;20062;-66
2022/09/30 05:45:29;;;;;;;16.15;14.43;;;;;;;;;;5300933;28;20092;-66
2022/09/30 05:48:00;;;;;;;17.70;14.04;;;;;;;;;;5302252;28;20069;-66
2022/09/30 05:50:32;;;;;;;17.38;14.35;;;;;;;;;;5301541;28;20097;-66
2022/09/30 05:53:03;;;;;;;17.92;14.40;;;;;;;;;;5301428;28;20016;-65
2022/09/30 05:55:34;;;;;;;17.02;15.23;;;;;;;;;;5301448;28;20016;-65
2022/09/30 05:58:05;;;;;;;17.70;15.78;;;;;;;;;;5301246;28;20103;-66
2022/09/30 06:00:38;;;;;;;17.92;14.70;;;;;;;;;;5301488;28;20074;-66
2022/09/30 06:03:10;;;;;;;16.75;14.43;;;;;;;;;;5302176;28;20024;-66
2022/09/30 06:05:41;;;;;;;16.05;14.38;;;;;;;;;;5300527;28;20042;-67
2022/09/30 06:08:13;;;;;;;17.40;14.45;;;;;;;;;;5302212;28;20101;-67
2022/09/30 06:10:45;;;;;;;16.90;15.10;;;;;;;;;;5301476;28;20451;-65
2022/09/30 06:13:16;;;;;;;17.35;13.77;;;;;;;;;;5301197;28;20023;-66
2022/09/30 06:15:55;;;;;;;16.48;14.63;;;;;;;;;;5310144;28;20016;-66
2022/09/30 06:18:27;;;;;;;15.93;14.25;;;;;;;;;;5322727;28;20019;-66
2022/09/30 06:21:00;;;;;;;17.42;14.23;;;;;;;;;;5322275;28;20110;-66
2022/09/30 06:23:33;;;;;;;16.17;14.57;;;;;;;;;;5322589;28;20103;-66
2022/09/30 06:26:05;;;;;;;15.20;13.70;;;;;;;;;;5322560;28;20023;-66
2022/09/30 06:28:37;;;;;;;16.35;14.02;;;;;;;;;;5322124;28;20031;-66
2022/09/30 06:31:08;;;;;;;17.67;15.10;;;;;;;;;;5322685;28;20050;-66
2022/09/30 06:33:41;;;;;;;15.27;13.77;;;;;;;;;;5321214;28;20479;-66
2022/09/30 06:36:12;;;;;;;17.17;14.73;;;;;;;;;;5322945;28;20012;-65
2022/09/30 06:38:44;;;;;;;15.68;14.00;;;;;;;;;;5322068;28;20019;-67
2022/09/30 06:41:16;;;;;;;16.90;15.02;;;;;;;;;;5321862;28;20020;-66
2022/09/30 06:43:47;;;;;;;16.77;15.18;;;;;;;;;;5322209;28;20049;-66
2022/09/30 06:46:22;;;;;;;15.13;12.77;;;;;;;;;;5322866;28;20020;-66
2022/09/30 06:48:55;;;;;;;15.82;9.77;;;;;;;;;;5321080;28;20130;-67
2022/09/30 06:51:28;;;;;;;10.77;9.15;;;;;;;;;;5321854;28;20043;-68
2022/09/30 06:53:59;;;;;;;10.93;9.48;;;;;;;;;;5322652;28;20095;-67
2022/09/30 06:56:30;;;;;;;14.00;9.57;;;;;;;;;;5321058;28;20098;-67
2022/09/30 06:59:02;;;;;;;10.02;8.88;;;;;;;;;;5322281;28;20019;-67
2022/09/30 07:01:33;;;;;;;10.88;8.75;;;;;;;;;;5321281;28;20499;-66
2022/09/30 07:04:08;;;;;;;11.98;8.32;;;;;;;;;;5322624;28;20024;-67
2022/09/30 07:06:40;;;;;;;8.60;7.78;;;;;;;;;;5321598;28;20123;-67
2022/09/30 07:09:11;;;;;;;11.50;7.85;;;;;;;;;;5321502;28;20032;-67
2022/09/30 07:11:42;;;;;;;12.60;8.73;;;;;;;;;;5321940;28;20034;-67
2022/09/30 07:14:14;;;;;;;9.65;8.60;;;;;;;;;;5322506;28;20073;-67
2022/09/30 07:16:45;;;;;;;9.27;8.27;;;;;;;;;;5321120;28;20028;-68
2022/09/30 07:19:16;;;;;;;11.27;9.85;;;;;;;;;;5321962;28;20023;-67
2022/09/30 07:21:48;;;;;;;13.80;10.70;;;;;;;;;;5321789;28;20022;-67
2022/09/30 07:24:19;;;;;;;14.63;11.65;;;;;;;;;;5321488;28;20031;-67
2022/09/30 07:26:51;;;;;;;13.27;11.10;;;;;;;;;;5323993;28;20458;-66
2022/09/30 07:29:22;;;;;;;13.93;11.90;;;;;;;;;;5325858;28;20700;-66
2022/09/30 07:31:53;;;;;;;13.85;10.57;;;;;;;;;;5325335;28;20035;-66
2022/09/30 07:34:25;;;;;;;13.98;11.70;;;;;;;;;;5325956;28;20291;-67
2022/09/30 07:36:56;;;;;;;12.00;10.15;;;;;;;;;;5325484;28;20102;-68
2022/09/30 07:39:27;;;;;;;12.05;10.77;;;;;;;;;;5325503;28;20470;-66
2022/09/30 07:42:00;;;;;;;11.45;10.30;;;;;;;;;;5326213;28;20394;-66
2022/09/30 07:44:32;;;;;;;12.15;10.02;;;;;;;;;;5325248;28;20024;-68
2022/09/30 07:47:03;;;;;;;12.43;11.23;;;;;;;;;;5326171;28;20092;-68
2022/09/30 07:49:34;;;;;;;12.15;10.95;;;;;;;;;;5325538;28;20484;-68
2022/09/30 07:52:06;;;;;;;13.35;11.60;;;;;;;;;;5325620;28;20116;-68
2022/09/30 07:54:38;;;;;;;12.52;11.23;;;;;;;;;;5325217;28;20027;-68
2022/09/30 07:57:09;;;;;;;13.45;12.10;;;;;;;;;;5325770;28;20028;-68
2022/09/30 07:59:40;;;;;;;13.75;12.25;;;;;;;;;;5324343;28;20069;-68
2022/09/30 08:02:13;;;;;;;13.30;11.93;;;;;;;;;;5321873;28;20024;-68
2022/09/30 08:04:44;;;;;;;13.20;11.90;;;;;;;;;;5323662;28;20026;-67
2022/09/30 08:07:16;;;;;;;13.18;11.55;;;;;;;;;;5325986;28;20024;-67
2022/09/30 08:09:47;;;;;;;13.82;12.38;;;;;;;;;;5324903;28;20062;-67
2022/09/30 08:12:19;;;;;;;15.98;12.80;;;;;;;;;;5324606;28;20499;-66
2022/09/30 08:14:50;;;;;;;14.20;12.68;;;;;;;;;;5324948;28;20355;-66
2022/09/30 08:17:21;;;;;;;15.74;14.18;;;;;;;;;;5325447;28;20715;-67
2022/09/30 08:19:52;;;;;;;14.82;13.40;;;;;;;;;;5324141;28;20343;-66
2022/09/30 08:22:23;;;;;;;20.05;14.65;;;;;;;;;;5324939;28;20287;-67
2022/09/30 08:24:54;;;;;;;19.80;17.42;;;;;;;;;;5325043;28;20377;-65
2022/09/30 08:27:25;;;;;;;17.90;15.70;;;;;;;;;;5323959;28;20276;-66
2022/09/30 08:29:57;;;;;;;18.58;16.70;;;;;;;;;;5325019;28;20428;-66
2022/09/30 08:32:31;;;;;;;18.75;16.08;;;;;;;;;;5324313;28;20026;-66
2022/09/30 08:35:02;;;;;;;17.98;15.40;;;;;;;;;;5323787;28;20361;-66
2022/09/30 08:37:33;;;;;;;18.45;16.65;;;;;;;;;;5324419;28;20181;-66
2022/09/30 08:40:05;;;;;;;19.90;16.75;;;;;;;;;;5324106;28;20055;-66
2022/09/30 08:42:36;;;;;;;19.15;17.15;;;;;;;;;;5324452;28;20062;-66
2022/09/30 08:45:16;;;;;;;17.25;15.52;;;;;;;;;;5324837;28;20019;-66
2022/09/30 08:47:56;;;;;;;15.95;14.38;;;;;;;;;;5323127;28;20270;-66
2022/09/30 08:50:28;;;;;;;16.45;14.75;;;;;;;;;;5323949;28;20078;-66
2022/09/30 08:53:07;;;;;;;15.95;14.38;;;;;;;;;;5324970;28;20466;-65
2022/09/30 08:55:40;;;;;;;16.48;14.65;;;;;;;;;;5324094;28;20015;-65
2022/09/30 08:58:17;;;;;;;16.77;14.98;;;;;;;;;;5324934;28;20019;-65
2022/09/30 09:00:50;;;;;;;17.75;13.63;;;;;;;;;;5323183;28;20092;-66
2022/09/30 09:03:25;;;;;;;14.45;13.05;;;;;;;;;;5313105;28;20366;-65
2022/09/30 09:06:07;;;;;;;15.73;14.05;;;;;;;;;;5311234;28;20091;-65
2022/09/30 09:08:48;;;;;;;14.48;13.07;;;;;;;;;;5308030;28;20096;-66
2022/09/30 09:11:19;;;;;;;15.18;13.60;;;;;;;;;;5317232;28;20028;-66
2022/09/30 09:13:51;;;;;;;14.35;12.90;;;;;;;;;;5322567;28;20524;-66
2022/09/30 09:16:35;;;;;;;14.18;12.80;;;;;;;;;;5322360;28;20107;-66
2022/09/30 09:19:14;;;;;;;15.70;13.32;;;;;;;;;;5309925;27;20345;-65
2022/09/30 09:21:53;;;;;;;16.42;12.63;;;;;;;;;;5322602;28;20028;-66
2022/09/30 09:24:29;;;;;;;12.40;11.00;;;;;;;;;;5322804;28;20066;-65
2022/09/30 09:27:09;;;;;;;14.15;12.60;;;;;;;;;;5323627;28;20012;-66
2022/09/30 09:29:44;;;;;;;12.32;11.10;;;;;;;;;;5322350;27;20087;-66
2022/09/30 09:32:16;;;;;;;11.05;9.95;;;;;;;;;;5323158;28;20023;-66
2022/09/30 09:34:50;;;;;;;9.80;8.80;;;;;;;;;;5322698;28;20027;-66
2022/09/30 09:38:23;;;;;;;9.27;7.82;;;;;;;;;;5321903;28;20048;-66
2022/09/30 09:40:25;;;;;;;8.77;7.88;;;;;;;;;;5323058;28;20039;-66
2022/09/30 09:43:02;;;;;;;9.25;7.18;;;;;;;;;;5323487;28;20027;-66
2022/09/30 09:45:34;;;;;;;6.38;5.88;;;;;;;;;;5323811;28;20177;-67
2022/09/30 09:48:10;;;;;;;8.38;6.68;;;;;;;;;;5323467;28;20214;-68
2022/09/30 09:50:56;;;;;;;7.30;6.55;;;;;;;;;;5321911;28;20131;-67
2022/09/30 09:53:27;;;;;;;8.20;7.40;;;;;;;;;;5322636;28;20028;-67
2022/09/30 09:55:58;;;;;;;9.32;6.63;;;;;;;;;;5323491;28;20027;-67
2022/09/30 09:58:33;;;;;;;6.95;6.35;;;;;;;;;;5322222;28;20049;-67
2022/09/30 10:01:27;;;;;;;8.00;7.20;;;;;;;;;;5323597;28;20034;-66
2022/09/30 10:04:14;;;;;;;6.32;5.82;;;;;;;;;;5323327;28;20035;-67
2022/09/30 10:06:48;;;;;;;5.20;4.80;;;;;;;;;;5322644;28;20057;-67
2022/09/30 10:09:28;;;;;;;5.18;4.78;;;;;;;;;;5322838;28;20054;-67
2022/09/30 10:12:05;;;;;;;8.00;4.50;;;;;;;;;;5322401;28;20081;-67
2022/09/30 10:14:55;;;;;;;3.97;3.58;;;;;;;;;;5322480;28;20063;-67
2022/09/30 10:17:28;;;;;;;4.40;4.00;;;;;;;;;;5322911;28;20413;-67
2022/09/30 10:20:06;;;;;;;6.63;4.70;;;;;;;;;;5322581;28;20712;-67
2022/09/30 10:22:38;;;;;;;4.13;3.73;;;;;;;;;;5322794;28;20031;-67
2022/09/30 10:25:21;;;;;;;6.18;3.20;;;;;;;;;;5323243;28;20764;-67
2022/09/30 10:27:56;;;;;;;4.85;3.30;;;;;;;;;;5322012;28;20016;-68
2022/09/30 10:30:34;;;;;;;4.28;3.85;;;;;;;;;;5321794;28;20023;-70
2022/09/30 10:33:13;;;;;;;4.85;3.10;;;;;;;;;;5321950;28;20049;-68
2022/09/30 10:36:00;;;;;;;4.90;3.53;;;;;;;;;;5319010;28;20019;-66
2022/09/30 10:38:33;;;;;;;5.93;2.90;;;;;;;;;;5321855;28;20024;-67
2022/09/30 10:41:04;;;;;;;5.70;3.22;;;;;;;;;;5321690;28;20023;-67
2022/09/30 10:43:38;;;;;;;5.97;2.80;;;;;;;;;;5321830;28;20019;-67
2022/09/30 10:46:09;;;;;;;3.47;2.88;;;;;;;;;;5321897;28;20023;-66
2022/09/30 10:48:47;;;;;;;3.85;2.83;;;;;;;;;;5320883;28;20019;-67
2022/09/30 10:51:29;;;;;;;3.40;2.20;;;;;;;;;;5322394;28;20458;-67
2022/09/30 10:54:02;;;;;;;2.15;1.50;;;;;;;;;;5321934;28;20024;-67
2022/09/30 10:56:43;;;;;;;6.20;1.75;;;;;;;;;;5322305;28;20044;-67
2022/09/30 10:59:35;;;;;;;3.15;1.75;;;;;;;;;;5322777;28;20016;-67
2022/09/30 11:02:20;;;;;;;2.13;0.88;;;;;;;;;;5325646;28;20075;-68
2022/09/30 11:04:56;;;;;;;2.75;1.58;;;;;;;;;;5326586;28;20173;-67
2022/09/30 11:07:50;;;;;;;1.42;0.90;;;;;;;;;;5325445;28;20030;-68
2022/09/30 11:10:21;;;;;;;2.75;0.77;;;;;;;;;;5318095;28;20115;-67
2022/09/30 11:13:03;;;;;;;1.60;0.60;;;;;;;;;;5325943;28;20016;-67
2022/09/30 11:15:52;;;;;;;1.98;0.80;;;;;;;;;;5325581;28;20326;-66
2022/09/30 11:18:26;;;;;;;3.03;0.60;;;;;;;;;;5326085;28;20092;-67
2022/09/30 11:21:00;;;;;;;1.60;0.80;;;;;;;;;;5326488;28;20020;-67
2022/09/30 11:23:36;;;;;;;1.55;1.00;;;;;;;;;;5324777;28;20109;-66
2022/09/30 11:26:18;;;;;;;2.75;0.80;;;;;;;;;;5326424;28;20427;-66
2022/09/30 11:28:54;;;;;;;2.67;0.80;;;;;;;;;;5325111;28;20028;-66
2022/09/30 11:31:34;;;;;;;1.98;0.95;;;;;;;;;;5325716;28;20050;-66
2022/09/30 11:34:25;;;;;;;1.85;1.00;;;;;;;;;;5325972;27;20470;-66
2022/09/30 11:37:10;;;;;;;2.47;0.88;;;;;;;;;;5324760;28;20051;-67
2022/09/30 11:40:05;;;;;;;2.40;0.88;;;;;;;;;;5325119;28;20127;-66
2022/09/30 11:42:42;;;;;;;1.35;0.68;;;;;;;;;;5316252;28;20092;-66
2022/09/30 11:45:32;;;;;;;2.13;0.70;;;;;;;;;;5325875;28;20016;-66
2022/09/30 11:48:22;;;;;;;1.80;0.60;;;;;;;;;;5325723;28;20023;-66
2022/09/30 11:51:03;;;;;;;1.98;0.80;;;;;;;;;;5324516;28;20044;-66
2022/09/30 11:54:01;;;;;;;3.97;0.70;;;;;;;;;;5325759;28;20020;-67
2022/09/30 11:56:39;;;;;;;3.92;0.90;;;;;;;;;;5301894;28;20390;-67
2022/09/30 11:59:16;;;;;;;2.07;0.60;;;;;;;;;;5326097;28;20109;-67
2022/09/30 12:01:48;;;;;;;1.50;0.50;;;;;;;;;;5325349;28;20019;-67
2022/09/30 12:04:38;;;;;;;2.25;0.88;;;;;;;;;;5325324;27;20631;-68
2022/09/30 12:07:13;;;;;;;1.63;0.60;;;;;;;;;;5326100;28;20497;-66
2022/09/30 12:09:46;;;;;;;1.73;0.60;;;;;;;;;;5325162;28;20072;-66
2022/09/30 12:12:18;;;;;;;1.52;0.50;;;;;;;;;;5324307;28;20016;-66
2022/09/30 12:15:04;;;;;;;1.23;0.40;;;;;;;;;;5324884;28;20098;-66
2022/09/30 12:17:42;;;;;;;1.35;0.45;;;;;;;;;;5324954;28;20107;-67
2022/09/30 12:20:27;;;;;;;1.77;0.43;;;;;;;;;;5325209;28;20043;-67
2022/09/30 12:23:10;;;;;;;2.80;0.43;;;;;;;;;;5325607;28;20037;-67
2022/09/30 12:25:57;;;;;;;2.42;0.40;;;;;;;;;;5323734;28;20015;-67
2022/09/30 12:31:21;;;;;;;1.52;0.47;;;;;;;;;;5325397;28;20049;-66
2022/09/30 12:34:19;;;;;;;1.65;0.40;;;;;;;;;;5323557;28;20172;-66
2022/09/30 12:36:53;;;;;;;0.80;0.30;;;;;;;;;;5324847;28;20035;-66
2022/09/30 12:39:33;;;;;;;1.10;0.40;;;;;;;;;;5324139;28;20031;-66
2022/09/30 12:42:18;;;;;;;0.75;0.30;;;;;;;;;;5325134;28;20030;-66
2022/09/30 12:44:55;;;;;;;0.80;0.30;;;;;;;;;;5324057;28;20019;-66
2022/09/30 12:47:26;;;;;;;0.73;0.30;;;;;;;;;;5323403;28;20102;-67
2022/09/30 12:49:57;;;;;;;1.20;0.60;;;;;;;;;;5324614;28;20107;-67
2022/09/30 12:52:33;;;;;;;1.80;0.30;;;;;;;;;;5324018;28;20261;-67
2022/09/30 12:55:21;;;;;;;1.73;0.40;;;;;;;;;;5324071;28;20016;-67
2022/09/30 12:57:53;;;;;;;1.52;0.30;;;;;;;;;;5324020;28;20019;-66
2022/09/30 13:00:26;;;;;;;3.08;0.30;;;;;;;;;;5323420;27;20343;-67
2022/09/30 13:03:02;;;;;;;1.80;0.40;;;;;;;;;;5324520;28;20084;-67
2022/09/30 13:05:33;;;;;;;1.83;0.40;;;;;;;;;;5323864;28;20466;-67
2022/09/30 13:08:04;;;;;;;5.57;0.60;;;;;;;;;;5323600;28;20026;-66
2022/09/30 13:10:35;;;;;;;6.05;0.70;;;;;;;;;;5323795;28;20132;-67
2022/09/30 13:13:09;;;;;;;2.65;0.43;;;;;;;;;;5324292;28;20401;-66
2022/09/30 13:15:44;;;;;;;6.60;0.50;;;;;;;;;;5322597;28;20046;-67
2022/09/30 13:18:18;;;;;;;2.70;0.40;;;;;;;;;;5323909;28;20012;-67
2022/09/30 13:20:55;;;;;;;4.10;0.80;;;;;;;;;;5323470;28;20346;-67
2022/09/30 13:23:39;;;;;;;5.43;0.57;;;;;;;;;;5321778;28;20027;-67
2022/09/30 13:26:22;;;;;;;1.40;0.20;;;;;;;;;;5324266;28;20019;-67
2022/09/30 13:29:13;;;;;;;0.90;0.30;;;;;;;;;;5322661;28;20132;-67
2022/09/30 13:31:44;;;;;;;2.50;0.32;;;;;;;;;;5323466;28;20012;-67
2022/09/30 13:34:23;;;;;;;2.67;0.30;;;;;;;;;;5323978;28;20026;-66
2022/09/30 13:36:58;;;;;;;1.42;0.30;;;;;;;;;;5322893;28;20374;-66
2022/09/30 13:39:32;;;;;;;2.85;0.60;;;;;;;;;;5323194;28;20373;-68
2022/09/30 13:42:07;;;;;;;3.10;0.30;;;;;;;;;;5323694;28;20031;-67
2022/09/30 13:55:18;;;;;;;1.70;0.30;;;;;;;;;;5320007;27;20161;-66
2022/09/30 13:57:56;;;;;;;1.20;0.30;;;;;;;;;;5318354;28;20027;-66
2022/09/30 14:00:44;;;;;;;1.92;0.40;;;;;;;;;;5319325;28;20437;-66
2022/09/30 14:03:21;;;;;;;2.85;0.38;;;;;;;;;;5318762;28;20058;-66
2022/09/30 14:05:58;;;;;;;2.53;0.50;;;;;;;;;;5318849;28;20065;-67
2022/09/30 14:08:39;;;;;;;1.63;0.30;;;;;;;;;;5319161;28;20028;-67
2022/09/30 14:11:34;;;;;;;2.17;0.40;;;;;;;;;;5318846;28;20344;-66
2022/09/30 14:14:06;;;;;;;2.72;0.40;;;;;;;;;;5319377;28;20028;-67
2022/09/30 14:16:46;;;;;;;1.20;0.40;;;;;;;;;;5318968;28;20073;-66
2022/09/30 14:19:29;;;;;;;1.23;0.40;;;;;;;;;;5318817;28;20099;-66
2022/09/30 14:22:05;;;;;;;2.30;0.30;;;;;;;;;;5319468;28;20016;-66
2022/09/30 14:24:37;;;;;;;1.15;0.35;;;;;;;;;;5317987;28;20061;-67
2022/09/30 14:27:15;;;;;;;1.60;0.40;;;;;;;;;;5319354;28;20343;-66
2022/09/30 14:29:46;;;;;;;1.73;0.35;;;;;;;;;;5318704;28;20023;-67
2022/09/30 14:32:28;;;;;;;4.53;0.30;;;;;;;;;;5318706;28;20471;-66
2022/09/30 14:35:03;;;;;;;1.15;0.38;;;;;;;;;;5319370;28;20024;-66
2022/09/30 14:37:40;;;;;;;1.38;0.30;;;;;;;;;;5318597;28;20024;-66
2022/09/30 14:40:15;;;;;;;1.38;0.30;;;;;;;;;;5318903;28;20016;-66
2022/09/30 14:42:46;;;;;;;1.65;0.40;;;;;;;;;;5318415;28;20466;-66
2022/09/30 14:45:26;;;;;;;3.00;0.40;;;;;;;;;;5318703;28;20069;-67
2022/09/30 14:48:01;;;;;;;2.83;0.40;;;;;;;;;;5318236;28;20016;-66
2022/09/30 14:50:38;;;;;;;1.45;0.30;;;;;;;;;;5318029;28;20053;-66
2022/09/30 14:53:28;;;;;;;2.10;0.30;;;;;;;;;;5317779;28;20440;-67
2022/09/30 14:56:00;;;;;;;1.27;0.32;;;;;;;;;;5305576;28;20028;-65
2022/09/30 14:58:43;;;;;;;2.28;0.30;;;;;;;;;;5304245;28;20016;-65
2022/09/30 15:01:16;;;;;;;2.08;0.40;;;;;;;;;;5303551;28;20363;-65
2022/09/30 15:03:58;;;;;;;2.75;0.32;;;;;;;;;;5303536;28;20028;-65
2022/09/30 15:06:31;;;;;;;2.20;0.30;;;;;;;;;;5303733;28;20455;-65
2022/09/30 15:09:21;;;;;;;1.00;0.30;;;;;;;;;;5303581;28;20115;-65
2022/09/30 15:11:52;;;;;;;1.60;0.50;;;;;;;;;;5303544;28;20024;-65
2022/09/30 15:14:23;;;;;;;1.10;0.30;;;;;;;;;;5302842;28;20024;-66
2022/09/30 15:16:56;;;;;;;1.40;0.40;;;;;;;;;;5303499;28;20724;-65
2022/09/30 15:19:28;;;;;;;1.52;0.40;;;;;;;;;;5302933;28;20019;-65
2022/09/30 15:22:04;;;;;;;1.95;0.32;;;;;;;;;;5299092;28;20020;-65
2022/09/30 15:24:36;;;;;;;1.05;0.30;;;;;;;;;;5296598;28;20036;-65
2022/09/30 15:27:13;;;;;;;1.48;0.30;;;;;;;;;;5293326;28;20027;-66
2022/09/30 15:29:55;;;;;;;1.67;0.40;;;;;;;;;;5283119;28;20035;-66
2022/09/30 15:32:32;;;;;;;1.83;0.40;;;;;;;;;;5282214;28;20020;-66
2022/09/30 15:35:04;;;;;;;2.85;0.50;;;;;;;;;;5281227;28;20031;-66